EGLLLXGB

Guest
Details From EGLL - London Heathrow
To LXGB - Gibraltar
Flight Number -
Tags Generated
Created
Modified
Stats Distance 944 nm / 1,749 km
Max Altitude 0 ft / 0 m
Waypoints 6
Social Downloads 26
Likes 0
Share VATSIM

Download

Looking for another format? Having issues loading an existing format? Contact us
Advertisement - Login to hide

Notes

Generated

Route

EGLL LAGAB XALON NATPA BRIKE LXGB

ID Type Via Altitude Latitude Longitude Leg Dist Tot Dist Heading (true) Name
O EGLL APT - 0 ft / 0 m 51.46477˚ -0.48695˚ - 0 nm - -
LAGAB FIX - 0 ft / 0 m 47.88944˚ -1.99167˚ 222 nm 222 nm 196° / 195° -
XALON FIX - 0 ft / 0 m 43.80745˚ -3.45096˚ 252 nm 475 nm 195° / 193° -
NATPA FIX - 0 ft / 0 m 39.91889˚ -4.58639˚ 238 nm 714 nm 193° / 192° -
BRIKE FIX - 0 ft / 0 m 36.50478˚ -5.41645˚ 208 nm 922 nm 191° / 191° -
O LXGB APT - 0 ft / 0 m 36.15080˚ -5.35977˚ 21 nm 944 nm 173° / 173° -

Altitude Profile

Advertisement - Login to hide

Weather


0- 5 10 15 20 25 30 35+ Temperature / ° C

Clouds and Precipitation
Forecast for 2018-05-25 12:00 UTC. Updated 2 hours ago

Ground ~20,000 ft ~40,000 ft Winds

EGLL

Details ICAO EGLL (LHR)
Name London Heathrow
Region United Kingdom
Timezone Europe/London (UTC+1.0)
Stats Elevation 83 ft / 25 m (AMSL)
Location 51.471218° -0.460978°
Runways 2
Magnetic Variation 0.495° W

METAR

EGLL 251320Z AUTO 16004KT 090V230 9999 OVC015 17/13 Q1018

Decode

TAF

TAF AMD EGLL 251158Z 2512/2618 VRB03KT 9999 BKN014 BECMG 2512/2515 SCT025 TEMPO 2512/2516 8000 PROB30 TEMPO 2516/2520 7000 SHRA BECMG 2521/2524 7000 PROB30 TEMPO 2600/2606 4000 HZ BKN006 BECMG 2604/2607 05012KT PROB30 TEMPO 2606/2612 3500 +SHRA BKN008 BKN048CB BECMG 2607/2610 9999

Decode

Departure Runways

ID Width Length Bearing (true) Bearing (mag) Surface Threshold Offset Overrun Length
09L 164 ft / 50 m 12,811 ft / 3,905 m 89.64° 90.13° Asphalt 1,004 ft / 306 m 0 ft / 0 m
09R 164 ft / 50 m 12,019 ft / 3,663 m 89.67° 90.16° Asphalt 1,007 ft / 307 m 0 ft / 0 m
27L 164 ft / 50 m 12,019 ft / 3,663 m 269.71° 270.20° Asphalt 0 ft / 0 m 69 ft / 21 m
27R 164 ft / 50 m 12,811 ft / 3,905 m 269.69° 270.18° Asphalt 0 ft / 0 m 69 ft / 21 m

LXGB

Details ICAO LXGB (GIB)
Name Gibraltar
Region Gibralter
Timezone Europe/Gibraltar (UTC+2.0)
Stats Elevation 15 ft / 5 m (AMSL)
Location 36.151209° -5.349664°
Runways 1
Magnetic Variation 1.072° W

METAR

LXGB 251250Z 19009KT 9999 FEW035 22/11 Q1014 NOSIG

Decode

TAF

Not found

Destination Runways

ID Width Length Bearing (true) Bearing (mag) Surface Threshold Offset Overrun Length
27 151 ft / 46 m 5,992 ft / 1,826 m 267.56° 268.63° Asphalt 367 ft / 112 m 89 ft / 27 m
9 151 ft / 46 m 5,992 ft / 1,826 m 87.54° 88.61° Asphalt 299 ft / 91 m 52 ft / 16 m

Popular Alternatives